sensor_id;sensor_type;location;lat;lon;timestamp;pressure;altitude;pressure_sealevel;temperature;humidity
7441;BME280;29616;51.950;8.572;2022-07-25T00:01:45;99689.97;;;20.11;100.00
7441;BME280;29616;51.950;8.572;2022-07-25T00:04:14;99688.59;;;19.95;100.00
7441;BME280;29616;51.950;8.572;2022-07-25T00:06:42;99689.47;;;19.89;100.00
7441;BME280;29616;51.950;8.572;2022-07-25T00:09:11;99677.56;;;20.13;100.00
7441;BME280;29616;51.950;8.572;2022-07-25T00:11:39;99665.31;;;19.96;100.00
7441;BME280;29616;51.950;8.572;2022-07-25T00:14:08;99675.50;;;20.02;100.00
7441;BME280;29616;51.950;8.572;2022-07-25T00:16:36;99654.69;;;19.93;100.00
7441;BME280;29616;51.950;8.572;2022-07-25T00:19:06;99654.59;;;20.06;100.00
7441;BME280;29616;51.950;8.572;2022-07-25T00:21:34;99659.00;;;20.14;100.00
7441;BME280;29616;51.950;8.572;2022-07-25T00:24:03;99672.97;;;20.01;100.00
7441;BME280;29616;51.950;8.572;2022-07-25T00:26:32;99670.22;;;19.94;100.00
7441;BME280;29616;51.950;8.572;2022-07-25T00:29:06;99677.50;;;19.95;100.00
7441;BME280;29616;51.950;8.572;2022-07-25T00:31:34;99663.28;;;19.78;100.00
7441;BME280;29616;51.950;8.572;2022-07-25T00:34:02;99672.94;;;19.69;100.00
7441;BME280;29616;51.950;8.572;2022-07-25T00:36:32;99660.44;;;19.60;100.00
7441;BME280;29616;51.950;8.572;2022-07-25T00:39:00;99665.78;;;19.55;100.00
7441;BME280;29616;51.950;8.572;2022-07-25T00:41:29;99659.81;;;19.52;100.00
7441;BME280;29616;51.950;8.572;2022-07-25T00:43:57;99660.06;;;19.44;100.00
7441;BME280;29616;51.950;8.572;2022-07-25T00:46:25;99664.16;;;19.34;100.00
7441;BME280;29616;51.950;8.572;2022-07-25T00:48:53;99650.06;;;19.29;100.00
7441;BME280;29616;51.950;8.572;2022-07-25T00:51:22;99629.06;;;19.09;100.00
7441;BME280;29616;51.950;8.572;2022-07-25T00:53:52;99649.06;;;19.17;100.00
7441;BME280;29616;51.950;8.572;2022-07-25T00:56:20;99657.81;;;19.14;100.00
7441;BME280;29616;51.950;8.572;2022-07-25T00:58:49;99656.16;;;19.07;100.00
7441;BME280;29616;51.950;8.572;2022-07-25T01:01:17;99641.00;;;19.09;100.00
7441;BME280;29616;51.950;8.572;2022-07-25T01:03:46;99651.47;;;19.07;100.00
7441;BME280;29616;51.950;8.572;2022-07-25T01:06:14;99640.44;;;18.94;100.00
7441;BME280;29616;51.950;8.572;2022-07-25T01:08:42;99636.56;;;18.95;100.00
7441;BME280;29616;51.950;8.572;2022-07-25T01:11:12;99640.88;;;18.85;100.00
7441;BME280;29616;51.950;8.572;2022-07-25T01:13:40;99624.09;;;18.73;100.00
7441;BME280;29616;51.950;8.572;2022-07-25T01:16:09;99637.06;;;18.79;100.00
7441;BME280;29616;51.950;8.572;2022-07-25T01:18:37;99621.09;;;18.81;100.00
7441;BME280;29616;51.950;8.572;2022-07-25T01:21:07;99605.97;;;18.77;100.00
7441;BME280;29616;51.950;8.572;2022-07-25T01:23:35;99615.50;;;18.94;100.00
7441;BME280;29616;51.950;8.572;2022-07-25T01:26:04;99613.81;;;18.93;100.00
7441;BME280;29616;51.950;8.572;2022-07-25T01:28:32;99611.03;;;18.93;100.00
7441;BME280;29616;51.950;8.572;2022-07-25T01:31:00;99621.06;;;18.94;100.00
7441;BME280;29616;51.950;8.572;2022-07-25T01:33:29;99610.34;;;19.04;100.00
7441;BME280;29616;51.950;8.572;2022-07-25T01:35:57;99612.03;;;19.12;100.00
7441;BME280;29616;51.950;8.572;2022-07-25T01:38:27;99615.03;;;19.04;100.00
7441;BME280;29616;51.950;8.572;2022-07-25T01:40:56;99614.19;;;19.03;100.00
7441;BME280;29616;51.950;8.572;2022-07-25T01:43:24;99621.00;;;19.01;100.00
7441;BME280;29616;51.950;8.572;2022-07-25T01:45:52;99614.41;;;19.02;100.00
7441;BME280;29616;51.950;8.572;2022-07-25T01:48:20;99600.78;;;19.00;100.00
7441;BME280;29616;51.950;8.572;2022-07-25T01:50:49;99605.25;;;19.01;100.00
7441;BME280;29616;51.950;8.572;2022-07-25T01:53:18;99604.03;;;18.91;100.00
7441;BME280;29616;51.950;8.572;2022-07-25T01:55:47;99588.94;;;18.80;100.00
7441;BME280;29616;51.950;8.572;2022-07-25T01:58:17;99595.94;;;18.89;100.00
7441;BME280;29616;51.950;8.572;2022-07-25T02:00:47;99593.38;;;18.94;100.00
7441;BME280;29616;51.950;8.572;2022-07-25T02:03:15;99598.06;;;18.94;100.00
7441;BME280;29616;51.950;8.572;2022-07-25T02:06:00;99585.50;;;18.91;100.00
7441;BME280;29616;51.950;8.572;2022-07-25T02:08:29;99583.16;;;18.88;100.00
7441;BME280;29616;51.950;8.572;2022-07-25T02:10:59;99582.34;;;18.81;100.00
7441;BME280;29616;51.950;8.572;2022-07-25T02:13:28;99580.63;;;18.87;100.00
7441;BME280;29616;51.950;8.572;2022-07-25T02:15:56;99573.34;;;18.92;100.00
7441;BME280;29616;51.950;8.572;2022-07-25T02:18:24;99575.03;;;18.93;100.00
7441;BME280;29616;51.950;8.572;2022-07-25T02:20:52;99569.56;;;18.80;100.00
7441;BME280;29616;51.950;8.572;2022-07-25T02:23:21;99561.25;;;18.87;100.00
7441;BME280;29616;51.950;8.572;2022-07-25T02:25:49;99570.38;;;18.87;100.00
7441;BME280;29616;51.950;8.572;2022-07-25T02:28:19;99553.19;;;18.72;100.00
7441;BME280;29616;51.950;8.572;2022-07-25T02:30:47;99557.00;;;18.71;100.00
7441;BME280;29616;51.950;8.572;2022-07-25T02:33:15;99551.53;;;18.58;100.00
7441;BME280;29616;51.950;8.572;2022-07-25T02:35:43;99551.13;;;18.54;100.00
7441;BME280;29616;51.950;8.572;2022-07-25T02:38:11;99549.84;;;18.50;100.00
7441;BME280;29616;51.950;8.572;2022-07-25T02:40:45;99553.25;;;18.46;100.00
7441;BME280;29616;51.950;8.572;2022-07-25T02:43:14;99537.72;;;18.38;100.00
7441;BME280;29616;51.950;8.572;2022-07-25T02:45:43;99547.94;;;18.38;100.00
7441;BME280;29616;51.950;8.572;2022-07-25T02:48:12;99548.16;;;18.36;100.00
7441;BME280;29616;51.950;8.572;2022-07-25T02:50:40;99544.53;;;18.36;100.00
7441;BME280;29616;51.950;8.572;2022-07-25T02:53:08;99551.75;;;18.37;100.00
7441;BME280;29616;51.950;8.572;2022-07-25T02:55:37;99548.59;;;18.33;100.00
7441;BME280;29616;51.950;8.572;2022-07-25T02:58:05;99550.50;;;18.33;100.00
7441;BME280;29616;51.950;8.572;2022-07-25T03:00:33;99540.28;;;18.27;100.00
7441;BME280;29616;51.950;8.572;2022-07-25T03:03:03;99541.97;;;18.34;100.00
7441;BME280;29616;51.950;8.572;2022-07-25T03:05:31;99546.25;;;18.30;100.00
7441;BME280;29616;51.950;8.572;2022-07-25T03:08:00;99545.63;;;18.15;100.00
7441;BME280;29616;51.950;8.572;2022-07-25T03:10:28;99544.59;;;18.09;100.00
7441;BME280;29616;51.950;8.572;2022-07-25T03:12:57;99545.84;;;18.13;100.00
7441;BME280;29616;51.950;8.572;2022-07-25T03:15:25;99538.19;;;18.02;100.00
7441;BME280;29616;51.950;8.572;2022-07-25T03:17:53;99534.34;;;18.10;100.00
7441;BME280;29616;51.950;8.572;2022-07-25T03:20:23;99535.22;;;18.17;100.00
7441;BME280;29616;51.950;8.572;2022-07-25T03:22:52;99532.47;;;18.17;100.00
7441;BME280;29616;51.950;8.572;2022-07-25T03:25:20;99531.19;;;18.06;100.00
7441;BME280;29616;51.950;8.572;2022-07-25T03:27:49;99530.78;;;18.09;100.00
7441;BME280;29616;51.950;8.572;2022-07-25T03:30:18;99527.16;;;18.02;100.00
7441;BME280;29616;51.950;8.572;2022-07-25T03:32:46;99521.19;;;18.05;100.00
7441;BME280;29616;51.950;8.572;2022-07-25T03:35:14;99515.88;;;17.97;100.00
7441;BME280;29616;51.950;8.572;2022-07-25T03:37:44;99517.78;;;18.03;100.00
7441;BME280;29616;51.950;8.572;2022-07-25T03:40:13;99520.75;;;18.08;100.00
7441;BME280;29616;51.950;8.572;2022-07-25T03:42:42;99520.97;;;18.13;100.00
7441;BME280;29616;51.950;8.572;2022-07-25T03:45:11;99513.53;;;18.14;100.00
7441;BME280;29616;51.950;8.572;2022-07-25T03:47:39;99510.53;;;18.15;100.00
7441;BME280;29616;51.950;8.572;2022-07-25T03:50:08;99501.19;;;18.16;100.00
7441;BME280;29616;51.950;8.572;2022-07-25T03:52:36;99498.63;;;18.28;100.00
7441;BME280;29616;51.950;8.572;2022-07-25T03:55:07;99487.50;;;18.54;100.00
7441;BME280;29616;51.950;8.572;2022-07-25T03:57:36;99474.72;;;18.53;100.00
7441;BME280;29616;51.950;8.572;2022-07-25T04:00:06;99474.22;;;18.63;100.00
7441;BME280;29616;51.950;8.572;2022-07-25T04:02:35;99482.28;;;18.71;100.00
7441;BME280;29616;51.950;8.572;2022-07-25T04:05:05;99479.00;;;18.87;100.00
7441;BME280;29616;51.950;8.572;2022-07-25T04:07:33;99477.09;;;18.94;100.00
7441;BME280;29616;51.950;8.572;2022-07-25T04:10:02;99471.97;;;18.91;100.00
7441;BME280;29616;51.950;8.572;2022-07-25T04:12:31;99469.41;;;18.96;100.00
7441;BME280;29616;51.950;8.572;2022-07-25T04:15:00;99467.59;;;19.08;100.00
7441;BME280;29616;51.950;8.572;2022-07-25T04:17:28;99475.47;;;19.11;100.00
7441;BME280;29616;51.950;8.572;2022-07-25T04:19:56;99466.28;;;19.17;100.00
7441;BME280;29616;51.950;8.572;2022-07-25T04:22:24;99464.75;;;19.21;100.00
7441;BME280;29616;51.950;8.572;2022-07-25T04:24:52;99449.50;;;19.06;100.00
7441;BME280;29616;51.950;8.572;2022-07-25T04:27:20;99462.19;;;19.26;100.00
7441;BME280;29616;51.950;8.572;2022-07-25T04:29:49;99450.31;;;19.51;100.00
7441;BME280;29616;51.950;8.572;2022-07-25T04:32:17;99441.19;;;19.44;100.00
7441;BME280;29616;51.950;8.572;2022-07-25T04:34:49;99433.72;;;19.69;100.00
7441;BME280;29616;51.950;8.572;2022-07-25T04:37:18;99439.78;;;19.77;100.00
7441;BME280;29616;51.950;8.572;2022-07-25T04:39:46;99435.66;;;19.86;100.00
7441;BME280;29616;51.950;8.572;2022-07-25T04:42:14;99429.78;;;20.01;100.00
7441;BME280;29616;51.950;8.572;2022-07-25T04:44:42;99437.13;;;20.32;100.00
7441;BME280;29616;51.950;8.572;2022-07-25T04:47:11;99423.00;;;20.70;100.00
7441;BME280;29616;51.950;8.572;2022-07-25T04:49:39;99421.66;;;21.02;100.00
7441;BME280;29616;51.950;8.572;2022-07-25T04:52:07;99422.97;;;21.29;100.00
7441;BME280;29616;51.950;8.572;2022-07-25T04:54:35;99431.63;;;21.74;100.00
7441;BME280;29616;51.950;8.572;2022-07-25T04:57:03;99424.53;;;21.90;100.00
7441;BME280;29616;51.950;8.572;2022-07-25T04:59:31;99421.94;;;22.23;100.00
7441;BME280;29616;51.950;8.572;2022-07-25T05:02:00;99419.09;;;22.58;100.00
7441;BME280;29616;51.950;8.572;2022-07-25T05:04:30;99411.84;;;22.97;100.00
7441;BME280;29616;51.950;8.572;2022-07-25T05:07:00;99408.66;;;23.21;100.00
7441;BME280;29616;51.950;8.572;2022-07-25T05:09:29;99412.56;;;23.65;100.00
7441;BME280;29616;51.950;8.572;2022-07-25T05:11:57;99423.00;;;23.91;100.00
7441;BME280;29616;51.950;8.572;2022-07-25T05:14:25;99405.84;;;24.38;100.00
7441;BME280;29616;51.950;8.572;2022-07-25T05:16:53;99424.03;;;24.62;100.00
7441;BME280;29616;51.950;8.572;2022-07-25T05:19:21;99403.13;;;24.86;100.00
7441;BME280;29616;51.950;8.572;2022-07-25T05:21:50;99420.66;;;25.30;100.00
7441;BME280;29616;51.950;8.572;2022-07-25T05:24:18;99408.09;;;25.59;100.00
7441;BME280;29616;51.950;8.572;2022-07-25T05:26:48;99419.19;;;25.81;100.00
7441;BME280;29616;51.950;8.572;2022-07-25T05:29:17;99403.41;;;26.07;100.00
7441;BME280;29616;51.950;8.572;2022-07-25T05:31:45;99406.47;;;26.42;100.00
7441;BME280;29616;51.950;8.572;2022-07-25T05:34:13;99410.28;;;26.83;100.00
7441;BME280;29616;51.950;8.572;2022-07-25T05:36:41;99399.94;;;26.88;100.00
7441;BME280;29616;51.950;8.572;2022-07-25T05:39:14;99385.44;;;27.06;100.00
7441;BME280;29616;51.950;8.572;2022-07-25T05:41:42;99398.09;;;27.39;100.00
7441;BME280;29616;51.950;8.572;2022-07-25T05:44:10;99398.69;;;27.46;100.00
7441;BME280;29616;51.950;8.572;2022-07-25T05:46:38;99397.50;;;28.33;100.00
7441;BME280;29616;51.950;8.572;2022-07-25T05:49:06;99386.13;;;28.78;98.67
7441;BME280;29616;51.950;8.572;2022-07-25T05:51:35;99395.41;;;28.79;97.89
7441;BME280;29616;51.950;8.572;2022-07-25T05:54:03;99391.84;;;29.56;91.66
7441;BME280;29616;51.950;8.572;2022-07-25T05:56:33;99391.59;;;29.53;92.08
7441;BME280;29616;51.950;8.572;2022-07-25T05:59:01;99398.59;;;29.06;95.49
7441;BME280;29616;51.950;8.572;2022-07-25T06:01:29;99393.25;;;29.10;95.40
7441;BME280;29616;51.950;8.572;2022-07-25T06:03:57;99386.31;;;29.41;89.20
7441;BME280;29616;51.950;8.572;2022-07-25T06:06:25;99392.97;;;29.11;93.52
7441;BME280;29616;51.950;8.572;2022-07-25T06:08:53;99389.38;;;29.78;90.35
7441;BME280;29616;51.950;8.572;2022-07-25T06:11:22;99386.22;;;29.90;87.45
7441;BME280;29616;51.950;8.572;2022-07-25T06:13:57;99389.13;;;29.41;94.74
7441;BME280;29616;51.950;8.572;2022-07-25T06:16:25;99380.94;;;29.83;88.53
7441;BME280;29616;51.950;8.572;2022-07-25T06:18:54;99375.91;;;29.75;91.13
7441;BME280;29616;51.950;8.572;2022-07-25T06:21:22;99380.75;;;30.03;90.31
7441;BME280;29616;51.950;8.572;2022-07-25T06:23:50;99370.50;;;29.84;87.63
7441;BME280;29616;51.950;8.572;2022-07-25T06:26:18;99373.34;;;29.45;89.60
7441;BME280;29616;51.950;8.572;2022-07-25T06:28:47;99371.03;;;29.52;89.10
7441;BME280;29616;51.950;8.572;2022-07-25T06:31:16;99385.03;;;30.72;80.75
7441;BME280;29616;51.950;8.572;2022-07-25T06:33:44;99370.63;;;30.97;82.67
7441;BME280;29616;51.950;8.572;2022-07-25T06:36:12;99371.03;;;30.43;84.99
7441;BME280;29616;51.950;8.572;2022-07-25T06:38:41;99366.16;;;30.49;82.40
7441;BME280;29616;51.950;8.572;2022-07-25T06:41:13;99380.16;;;31.01;80.71
7441;BME280;29616;51.950;8.572;2022-07-25T06:43:41;99374.94;;;29.90;87.97
7441;BME280;29616;51.950;8.572;2022-07-25T06:46:09;99355.78;;;29.58;88.89
7441;BME280;29616;51.950;8.572;2022-07-25T06:48:39;99362.41;;;30.06;89.43
7441;BME280;29616;51.950;8.572;2022-07-25T06:51:07;99367.59;;;30.46;86.47
7441;BME280;29616;51.950;8.572;2022-07-25T06:53:35;99358.19;;;30.98;84.62
7441;BME280;29616;51.950;8.572;2022-07-25T06:56:04;99364.44;;;30.24;89.99
7441;BME280;29616;51.950;8.572;2022-07-25T06:58:32;99359.31;;;29.74;90.65
7441;BME280;29616;51.950;8.572;2022-07-25T07:01:01;99350.22;;;29.53;92.75
7441;BME280;29616;51.950;8.572;2022-07-25T07:03:29;99349.88;;;29.21;96.14
7441;BME280;29616;51.950;8.572;2022-07-25T07:05:59;99355.88;;;29.04;100.00
7441;BME280;29616;51.950;8.572;2022-07-25T07:08:27;99349.38;;;30.10;95.58
7441;BME280;29616;51.950;8.572;2022-07-25T07:10:55;99346.38;;;30.54;92.76
7441;BME280;29616;51.950;8.572;2022-07-25T07:13:23;99339.09;;;31.65;86.48
7441;BME280;29616;51.950;8.572;2022-07-25T07:15:52;99341.63;;;31.66;86.39
7441;BME280;29616;51.950;8.572;2022-07-25T07:18:20;99333.03;;;31.58;84.98
7441;BME280;29616;51.950;8.572;2022-07-25T07:20:49;99312.28;;;31.11;88.67
7441;BME280;29616;51.950;8.572;2022-07-25T07:23:19;99335.22;;;31.42;92.04
7441;BME280;29616;51.950;8.572;2022-07-25T07:25:47;99335.81;;;31.90;84.03
7441;BME280;29616;51.950;8.572;2022-07-25T07:28:15;99334.03;;;32.81;78.78
7441;BME280;29616;51.950;8.572;2022-07-25T07:30:43;99333.34;;;33.11;72.99
7441;BME280;29616;51.950;8.572;2022-07-25T07:33:32;99337.44;;;33.41;74.77
7441;BME280;29616;51.950;8.572;2022-07-25T07:36:00;99332.91;;;32.55;78.99
7441;BME280;29616;51.950;8.572;2022-07-25T07:38:30;99327.56;;;31.48;82.85
7441;BME280;29616;51.950;8.572;2022-07-25T07:40:58;99333.19;;;30.92;87.91
7441;BME280;29616;51.950;8.572;2022-07-25T07:43:26;99321.06;;;32.25;89.39
7441;BME280;29616;51.950;8.572;2022-07-25T07:45:57;99329.41;;;32.17;83.57
7441;BME280;29616;51.950;8.572;2022-07-25T07:48:27;99321.22;;;32.15;82.75
7441;BME280;29616;51.950;8.572;2022-07-25T07:50:56;99313.81;;;31.73;82.74
7441;BME280;29616;51.950;8.572;2022-07-25T07:53:25;99327.25;;;31.95;84.69
7441;BME280;29616;51.950;8.572;2022-07-25T07:56:15;99314.94;;;32.18;81.37
7441;BME280;29616;51.950;8.572;2022-07-25T07:58:43;99311.84;;;32.61;80.92
7441;BME280;29616;51.950;8.572;2022-07-25T08:01:11;99313.63;;;32.57;81.20
7441;BME280;29616;51.950;8.572;2022-07-25T08:03:39;99317.25;;;32.16;82.36
7441;BME280;29616;51.950;8.572;2022-07-25T08:06:07;99311.34;;;31.99;88.06
7441;BME280;29616;51.950;8.572;2022-07-25T08:08:36;99301.34;;;32.34;82.99
7441;BME280;29616;51.950;8.572;2022-07-25T08:11:05;99304.28;;;32.43;83.56
7441;BME280;29616;51.950;8.572;2022-07-25T08:13:34;99300.09;;;32.81;83.55
7441;BME280;29616;51.950;8.572;2022-07-25T08:16:04;99289.94;;;32.66;83.54
7441;BME280;29616;51.950;8.572;2022-07-25T08:18:33;99297.25;;;33.17;81.08
7441;BME280;29616;51.950;8.572;2022-07-25T08:21:03;99276.59;;;33.16;77.95
7441;BME280;29616;51.950;8.572;2022-07-25T08:23:32;99296.34;;;33.66;78.24
7441;BME280;29616;51.950;8.572;2022-07-25T08:26:01;99303.38;;;34.30;76.62
7441;BME280;29616;51.950;8.572;2022-07-25T08:28:29;99295.09;;;34.50;72.97
7441;BME280;29616;51.950;8.572;2022-07-25T08:30:59;99296.66;;;34.17;74.12
7441;BME280;29616;51.950;8.572;2022-07-25T08:33:27;99292.38;;;33.75;74.54
7441;BME280;29616;51.950;8.572;2022-07-25T08:35:56;99291.19;;;34.29;76.51
7441;BME280;29616;51.950;8.572;2022-07-25T08:38:26;99289.19;;;34.30;72.61
7441;BME280;29616;51.950;8.572;2022-07-25T08:40:55;99276.75;;;34.48;74.32
7441;BME280;29616;51.950;8.572;2022-07-25T08:43:23;99283.78;;;34.11;67.36
7441;BME280;29616;51.950;8.572;2022-07-25T08:45:53;99286.34;;;34.78;67.90
7441;BME280;29616;51.950;8.572;2022-07-25T08:48:24;99287.06;;;34.92;66.53
7441;BME280;29616;51.950;8.572;2022-07-25T08:50:53;99279.50;;;34.79;67.67
7441;BME280;29616;51.950;8.572;2022-07-25T08:53:23;99279.69;;;34.91;65.53
7441;BME280;29616;51.950;8.572;2022-07-25T08:56:02;99273.16;;;34.82;66.59
7441;BME280;29616;51.950;8.572;2022-07-25T08:58:38;99268.78;;;35.87;65.02
7441;BME280;29616;51.950;8.572;2022-07-25T09:01:07;99261.19;;;35.27;65.20
7441;BME280;29616;51.950;8.572;2022-07-25T09:03:37;99256.16;;;35.50;66.15
7441;BME280;29616;51.950;8.572;2022-07-25T09:06:13;99262.50;;;35.39;62.50
7441;BME280;29616;51.950;8.572;2022-07-25T09:08:53;99263.06;;;34.50;66.68
7441;BME280;29616;51.950;8.572;2022-07-25T09:11:29;99264.72;;;34.42;63.24
7441;BME280;29616;51.950;8.572;2022-07-25T09:13:59;99267.88;;;34.49;61.29
7441;BME280;29616;51.950;8.572;2022-07-25T09:16:28;99269.66;;;34.20;60.41
7441;BME280;29616;51.950;8.572;2022-07-25T09:19:08;99265.47;;;34.17;61.06
7441;BME280;29616;51.950;8.572;2022-07-25T09:21:38;99269.25;;;34.52;62.72
7441;BME280;29616;51.950;8.572;2022-07-25T09:24:09;99261.31;;;34.15;59.87
7441;BME280;29616;51.950;8.572;2022-07-25T09:26:47;99259.84;;;34.34;60.43
7441;BME280;29616;51.950;8.572;2022-07-25T09:29:17;99259.69;;;34.39;58.77
7441;BME280;29616;51.950;8.572;2022-07-25T09:31:46;99262.34;;;34.27;58.29
7441;BME280;29616;51.950;8.572;2022-07-25T09:34:33;99256.50;;;33.93;59.29
7441;BME280;29616;51.950;8.572;2022-07-25T09:37:01;99252.81;;;33.92;60.42
7441;BME280;29616;51.950;8.572;2022-07-25T09:39:35;99264.47;;;33.91;58.29
7441;BME280;29616;51.950;8.572;2022-07-25T09:42:20;99257.34;;;34.02;61.19
7441;BME280;29616;51.950;8.572;2022-07-25T09:45:00;99269.03;;;33.47;58.66
7441;BME280;29616;51.950;8.572;2022-07-25T09:47:29;99257.47;;;33.13;61.01
7441;BME280;29616;51.950;8.572;2022-07-25T09:49:59;99262.25;;;33.35;61.34
7441;BME280;29616;51.950;8.572;2022-07-25T09:52:28;99257.06;;;32.92;67.31
7441;BME280;29616;51.950;8.572;2022-07-25T09:54:56;99269.06;;;32.89;63.46
7441;BME280;29616;51.950;8.572;2022-07-25T09:57:24;99254.16;;;33.20;63.33
7441;BME280;29616;51.950;8.572;2022-07-25T09:59:52;99265.63;;;33.01;62.87
7441;BME280;29616;51.950;8.572;2022-07-25T10:02:30;99253.69;;;32.68;65.08
7441;BME280;29616;51.950;8.572;2022-07-25T10:05:09;99257.63;;;32.04;67.57
7441;BME280;29616;51.950;8.572;2022-07-25T10:07:41;99267.41;;;31.93;72.21
7441;BME280;29616;51.950;8.572;2022-07-25T10:10:19;99262.25;;;31.82;71.54
7441;BME280;29616;51.950;8.572;2022-07-25T10:13:00;99259.63;;;31.71;74.69
7441;BME280;29616;51.950;8.572;2022-07-25T10:15:41;99264.22;;;31.16;78.01
7441;BME280;29616;51.950;8.572;2022-07-25T10:18:09;99253.38;;;31.42;77.50
7441;BME280;29616;51.950;8.572;2022-07-25T10:20:39;99243.50;;;31.26;78.46
7441;BME280;29616;51.950;8.572;2022-07-25T10:23:19;99243.81;;;31.57;78.55
7441;BME280;29616;51.950;8.572;2022-07-25T10:25:59;99248.13;;;31.82;77.79
7441;BME280;29616;51.950;8.572;2022-07-25T10:28:38;99253.38;;;31.88;78.79
7441;BME280;29616;51.950;8.572;2022-07-25T10:31:21;99249.16;;;32.81;75.87
7441;BME280;29616;51.950;8.572;2022-07-25T10:33:51;99254.88;;;33.25;70.05
7441;BME280;29616;51.950;8.572;2022-07-25T10:36:22;99261.66;;;32.66;73.32
7441;BME280;29616;51.950;8.572;2022-07-25T10:38:52;99264.94;;;32.19;74.65
7441;BME280;29616;51.950;8.572;2022-07-25T10:41:23;99268.81;;;32.23;74.41
7441;BME280;29616;51.950;8.572;2022-07-25T10:43:58;99262.28;;;32.50;74.73
7441;BME280;29616;51.950;8.572;2022-07-25T10:46:27;99261.84;;;32.70;78.81
7441;BME280;29616;51.950;8.572;2022-07-25T10:49:01;99267.31;;;33.16;71.58
7441;BME280;29616;51.950;8.572;2022-07-25T10:51:32;99260.34;;;33.66;67.08
7441;BME280;29616;51.950;8.572;2022-07-25T10:54:14;99262.16;;;33.93;72.41
7441;BME280;29616;51.950;8.572;2022-07-25T10:56:55;99267.59;;;33.81;64.19
7441;BME280;29616;51.950;8.572;2022-07-25T10:59:30;99268.31;;;34.82;62.93
7441;BME280;29616;51.950;8.572;2022-07-25T11:01:59;99251.47;;;35.37;59.03
7441;BME280;29616;51.950;8.572;2022-07-25T11:04:27;99260.38;;;35.99;57.47
7441;BME280;29616;51.950;8.572;2022-07-25T11:07:06;99246.63;;;36.18;54.99
7441;BME280;29616;51.950;8.572;2022-07-25T11:09:34;99242.16;;;35.28;55.71
7441;BME280;29616;51.950;8.572;2022-07-25T11:12:03;99246.13;;;35.01;58.53
7441;BME280;29616;51.950;8.572;2022-07-25T11:14:33;99233.13;;;34.83;57.12
7441;BME280;29616;51.950;8.572;2022-07-25T11:17:14;99248.34;;;34.00;59.20
7441;BME280;29616;51.950;8.572;2022-07-25T11:19:44;99255.78;;;33.12;61.49
7441;BME280;29616;51.950;8.572;2022-07-25T11:22:21;99243.75;;;32.93;62.67
7441;BME280;29616;51.950;8.572;2022-07-25T11:24:49;99256.09;;;33.55;61.95
7441;BME280;29616;51.950;8.572;2022-07-25T11:27:23;99260.03;;;33.68;61.29
7441;BME280;29616;51.950;8.572;2022-07-25T11:29:53;99246.06;;;33.71;60.71
7441;BME280;29616;51.950;8.572;2022-07-25T11:32:21;99245.97;;;33.40;65.00
7441;BME280;29616;51.950;8.572;2022-07-25T11:34:51;99256.81;;;33.38;64.29
7441;BME280;29616;51.950;8.572;2022-07-25T11:37:21;99259.78;;;32.97;67.20
7441;BME280;29616;51.950;8.572;2022-07-25T11:39:50;99252.84;;;33.04;67.42
7441;BME280;29616;51.950;8.572;2022-07-25T11:42:19;99247.00;;;32.51;69.26
7441;BME280;29616;51.950;8.572;2022-07-25T11:44:48;99263.16;;;32.23;75.39
7441;BME280;29616;51.950;8.572;2022-07-25T11:47:25;99253.78;;;31.95;76.65
7441;BME280;29616;51.950;8.572;2022-07-25T11:49:55;99245.47;;;32.17;75.48
7441;BME280;29616;51.950;8.572;2022-07-25T11:52:26;99241.88;;;31.98;73.05
7441;BME280;29616;51.950;8.572;2022-07-25T11:54:58;99256.16;;;31.61;78.74
7441;BME280;29616;51.950;8.572;2022-07-25T11:57:28;99242.34;;;31.59;77.20
7441;BME280;29616;51.950;8.572;2022-07-25T11:59:57;99228.63;;;31.53;78.62
7441;BME280;29616;51.950;8.572;2022-07-25T12:02:35;99241.19;;;31.28;81.44
7441;BME280;29616;51.950;8.572;2022-07-25T12:05:05;99236.38;;;31.29;81.89
7441;BME280;29616;51.950;8.572;2022-07-25T12:07:37;99229.28;;;31.31;82.57
7441;BME280;29616;51.950;8.572;2022-07-25T12:10:08;99225.31;;;31.51;85.97
7441;BME280;29616;51.950;8.572;2022-07-25T12:12:48;99231.56;;;31.48;82.83
7441;BME280;29616;51.950;8.572;2022-07-25T12:15:19;99236.19;;;31.71;83.92
7441;BME280;29616;51.950;8.572;2022-07-25T12:17:48;99226.16;;;31.78;81.17
7441;BME280;29616;51.950;8.572;2022-07-25T12:20:18;99236.03;;;32.35;85.04
7441;BME280;29616;51.950;8.572;2022-07-25T12:22:48;99240.47;;;33.58;77.75
7441;BME280;29616;51.950;8.572;2022-07-25T12:25:17;99229.25;;;34.88;72.02
7441;BME280;29616;51.950;8.572;2022-07-25T12:27:46;99231.28;;;34.96;64.74
7441;BME280;29616;51.950;8.572;2022-07-25T12:30:14;99255.31;;;35.24;64.69
7441;BME280;29616;51.950;8.572;2022-07-25T12:32:43;99230.56;;;35.67;61.72
7441;BME280;29616;51.950;8.572;2022-07-25T12:35:12;99235.53;;;35.87;59.13
7441;BME280;29616;51.950;8.572;2022-07-25T12:37:41;99240.63;;;35.13;60.79
7441;BME280;29616;51.950;8.572;2022-07-25T12:40:12;99248.13;;;34.84;62.39
7441;BME280;29616;51.950;8.572;2022-07-25T12:42:41;99242.97;;;35.11;60.14
7441;BME280;29616;51.950;8.572;2022-07-25T12:45:09;99239.53;;;34.49;59.67
7441;BME280;29616;51.950;8.572;2022-07-25T12:47:38;99228.63;;;35.08;62.58
7441;BME280;29616;51.950;8.572;2022-07-25T12:50:07;99243.84;;;34.38;62.23
7441;BME280;29616;51.950;8.572;2022-07-25T12:52:35;99219.53;;;34.54;64.50
7441;BME280;29616;51.950;8.572;2022-07-25T12:55:05;99218.53;;;35.53;60.62
7441;BME280;29616;51.950;8.572;2022-07-25T12:57:35;99233.44;;;35.42;60.19
7441;BME280;29616;51.950;8.572;2022-07-25T13:00:05;99230.97;;;35.23;59.25
7441;BME280;29616;51.950;8.572;2022-07-25T13:02:34;99234.25;;;34.56;60.98
7441;BME280;29616;51.950;8.572;2022-07-25T13:05:03;99236.63;;;34.24;62.45
7441;BME280;29616;51.950;8.572;2022-07-25T13:07:31;99218.94;;;35.26;61.54
7441;BME280;29616;51.950;8.572;2022-07-25T13:10:00;99228.06;;;35.49;60.47
7441;BME280;29616;51.950;8.572;2022-07-25T13:12:29;99236.13;;;35.55;58.72
7441;BME280;29616;51.950;8.572;2022-07-25T13:14:59;99232.97;;;35.14;59.66
7441;BME280;29616;51.950;8.572;2022-07-25T13:17:27;99221.06;;;34.60;60.26
7441;BME280;29616;51.950;8.572;2022-07-25T13:19:55;99221.00;;;33.65;63.96